aviador You're here:

LEVX Decoded Metar

VIGO in SPAIN
Report Time2017-10-22 06:00:00
UTC Time2017-10-22 06:24:26
Flight Rules vfr VFR
Wind360° at 03 kt
W.Decomp.*RWY 02: 2.9 kt HW 0.9 kt LCW
Visibility9999 m
Phenomena:N/A
Clouds:N/A
Expected CloudBase > 1,600 ft AGL from Temp-Dew spread
CeilingNone
Temp10°C (ISA -3)
Dew Point06°C (76% RH)
AAT8.0°C
QNH1030 hPa
Density Alt0 ft
Elevation840 ft
Report Wrong Elevation
Raw Report
LEVX 220600Z 36003KT 330V050 CAVOK 10/06 Q1030 NOSIG=

Extra information for LEVX:More info

Metar Taf Metar & Taf Last 4 Metars F.Rules Stats Wind Profile Meteogram Temp Stats Airport Information Weather charts Add Link Nearby VenuesMetar ALERT Operation Metar Decoded Social comments